Time;durP1;ratioP1;P1;durP2;ratioP2;P2;SDS_P1;SDS_P2;PMS_P1;PMS_P2;Temp;Humidity;BMP_temperature;BMP_pressure;BME280_temperature;BME280_humidity;BME280_pressure;Samples;Min_cycle;Max_cycle;Signal;HPM_P1;HPM_P2
2022/01/23 00:00:05;;;;;;;52.05;23.23;;;;;;;1.05;97.30;97744.31;5071190;28;20106;-76
2022/01/23 00:02:35;;;;;;;48.97;21.27;;;;;;;1.07;97.12;97744.09;5070959;28;20044;-75
2022/01/23 00:05:06;;;;;;;52.40;21.00;;;;;;;1.09;97.21;97732.09;5070281;28;20503;-74
2022/01/23 00:07:33;;;;;;;56.55;21.23;;;;;;;1.13;97.00;97744.00;5071245;28;20049;-74
2022/01/23 00:10:00;;;;;;;56.20;21.27;;;;;;;1.12;96.82;97736.19;5070893;28;20041;-74
2022/01/23 00:12:28;;;;;;;48.47;21.52;;;;;;;1.10;96.77;97739.13;5070882;28;20055;-74
2022/01/23 00:17:40;;;;;;;57.28;21.80;;;;;;;1.07;96.93;97734.19;5070991;28;20535;-74
2022/01/23 00:20:10;;;;;;;49.05;21.85;;;;;;;1.10;96.98;97725.69;5090256;28;20052;-74
2022/01/23 00:22:41;;;;;;;56.95;22.02;;;;;;;1.11;96.71;97729.19;5091148;28;20490;-74
2022/01/23 00:30:40;;;;;;;49.67;20.50;;;;;;;1.13;96.68;97735.16;5091071;28;20051;-74
2022/01/23 00:33:10;;;;;;;48.20;21.17;;;;;;;1.13;96.58;97732.47;5090521;28;20502;-74
2022/01/23 00:35:39;;;;;;;49.22;20.05;;;;;;;1.15;96.47;97736.59;5090902;28;20557;-74
2022/01/23 00:38:07;;;;;;;47.30;21.08;;;;;;;1.19;96.51;97726.19;5090358;28;20048;-74
2022/01/23 00:40:35;;;;;;;48.22;20.33;;;;;;;1.18;96.06;97728.06;5091063;28;20052;-74
2022/01/23 00:43:06;;;;;;;50.72;21.17;;;;;;;1.18;96.06;97729.94;5090517;28;20048;-74
2022/01/23 00:45:35;;;;;;;41.40;19.80;;;;;;;1.18;96.02;97730.75;5090809;28;20098;-74
2022/01/23 00:48:05;;;;;;;45.92;19.05;;;;;;;1.20;95.90;97726.00;5088086;28;20791;-74
2022/01/23 00:50:36;;;;;;;46.45;19.17;;;;;;;1.20;95.76;97723.31;5070693;28;20045;-74
2022/01/23 00:53:05;;;;;;;47.53;19.45;;;;;;;1.18;95.71;97725.38;5070257;28;20388;-74
2022/01/23 00:55:31;;;;;;;45.03;19.23;;;;;;;1.16;95.79;97726.66;5070441;28;20064;-74
2022/01/23 00:57:58;;;;;;;47.25;20.35;;;;;;;1.15;95.99;97730.38;5070146;28;20040;-74
2022/01/23 01:00:24;;;;;;;42.78;18.90;;;;;;;1.12;96.06;97733.50;5070005;28;20045;-74
2022/01/23 01:02:51;;;;;;;44.22;20.05;;;;;;;1.13;96.16;97727.91;5070730;28;20042;-74
2022/01/23 01:05:17;;;;;;;54.10;19.55;;;;;;;1.14;96.01;97734.91;5070129;28;20415;-74
2022/01/23 01:07:45;;;;;;;45.45;18.65;;;;;;;1.15;95.91;97736.59;5070285;28;20115;-74
2022/01/23 01:10:18;;;;;;;45.08;19.77;;;;;;;1.17;96.01;97737.16;5069893;28;20055;-75
2022/01/23 01:12:47;;;;;;;50.00;19.33;;;;;;;1.21;96.07;97738.38;5070633;28;20061;-74
2022/01/23 01:31:58;;;;;;;41.22;18.73;;;;;;;1.27;95.44;97742.81;5094296;28;20059;-74
2022/01/23 01:34:33;;;;;;;39.85;18.05;;;;;;;1.29;95.38;97742.59;5093635;28;20052;-74
2022/01/23 01:37:00;;;;;;;39.25;18.52;;;;;;;1.30;95.16;97745.06;5094306;28;20059;-74
2022/01/23 01:39:29;;;;;;;42.92;19.42;;;;;;;1.30;94.90;97742.38;5093943;28;20430;-74
2022/01/23 01:41:57;;;;;;;50.20;20.38;;;;;;;1.32;94.69;97746.72;5094124;28;20496;-75
2022/01/23 01:44:24;;;;;;;43.25;19.23;;;;;;;1.30;94.59;97739.72;5093826;28;20048;-74
2022/01/23 01:46:51;;;;;;;45.25;20.02;;;;;;;1.34;94.58;97739.25;5094026;28;20442;-74
2022/01/23 01:49:26;;;;;;;42.55;20.15;;;;;;;1.30;94.50;97744.22;5080304;28;20466;-74
2022/01/23 01:51:53;;;;;;;44.65;19.83;;;;;;;1.26;94.64;97733.16;5073702;28;20051;-74
2022/01/23 01:54:22;;;;;;;39.67;18.42;;;;;;;1.28;94.52;97736.41;5073272;28;20048;-74
2022/01/23 01:56:52;;;;;;;38.42;18.75;;;;;;;1.32;94.56;97746.72;5073788;28;20040;-74
2022/01/23 02:10:13;;;;;;;37.20;17.75;;;;;;;1.32;94.33;97752.06;5072851;28;20079;-73
2022/01/23 02:16:04;;;;;;;35.20;16.67;;;;;;;1.36;93.85;97753.25;5082029;27;20402;-75
2022/01/23 02:51:43;;;;;;;36.53;18.55;;;;;;;1.38;93.40;97745.81;5067408;28;20087;-75
2022/01/23 02:54:29;;;;;;;35.50;16.23;;;;;;;1.40;93.22;97743.69;5066878;28;20106;-75
2022/01/23 02:57:02;;;;;;;37.65;16.63;;;;;;;1.41;93.25;97748.03;5067355;28;20049;-75
2022/01/23 02:59:31;;;;;;;39.13;16.87;;;;;;;1.42;93.17;97747.00;5067072;28;20044;-75
2022/01/23 03:02:08;;;;;;;37.92;16.25;;;;;;;1.42;92.91;97738.94;5067063;28;20449;-75
2022/01/23 03:04:38;;;;;;;36.42;16.85;;;;;;;1.44;93.12;97739.53;5067184;28;20045;-75
2022/01/23 03:07:31;;;;;;;36.90;16.40;;;;;;;1.45;93.03;97746.53;5066614;28;20044;-75
2022/01/23 03:10:03;;;;;;;42.50;17.90;;;;;;;1.46;92.93;97746.31;5067200;28;20040;-75
2022/01/23 03:15:26;;;;;;;37.35;17.13;;;;;;;1.44;92.79;97740.34;5066264;28;20044;-75
2022/01/23 03:26:26;;;;;;;34.97;16.55;;;;;;;1.41;92.92;97742.66;5049160;28;20094;-75
2022/01/23 03:29:15;;;;;;;40.22;17.70;;;;;;;1.42;92.98;97736.25;5053643;28;20048;-75
2022/01/23 03:31:43;;;;;;;39.05;15.32;;;;;;;1.45;92.87;97735.78;5053307;28;20087;-75
2022/01/23 03:34:09;;;;;;;32.28;15.82;;;;;;;1.45;92.74;97735.78;5052838;28;20052;-75
2022/01/23 03:36:37;;;;;;;38.00;17.80;;;;;;;1.45;92.88;97735.78;5053788;28;20079;-75
2022/01/23 03:39:07;;;;;;;37.88;17.50;;;;;;;1.47;92.55;97733.72;5052756;28;20045;-75
2022/01/23 03:41:36;;;;;;;39.90;18.10;;;;;;;1.51;92.70;97740.25;5053086;28;20056;-75
2022/01/23 03:44:04;;;;;;;36.95;16.67;;;;;;;1.53;92.37;97749.72;5050206;28;20041;-74
2022/01/23 03:49:32;;;;;;;37.13;17.08;;;;;;;1.64;91.87;97764.25;5045387;28;20095;-75
2022/01/23 03:52:00;;;;;;;37.10;16.52;;;;;;;1.63;91.71;97759.94;5053114;28;20077;-75
2022/01/23 03:54:27;;;;;;;37.58;17.17;;;;;;;1.63;91.62;97762.63;5052505;28;20044;-75
2022/01/23 03:56:56;;;;;;;41.58;16.38;;;;;;;1.67;91.60;97771.03;5053016;28;20045;-75
2022/01/23 03:59:23;;;;;;;34.72;17.02;;;;;;;1.70;91.54;97774.09;5052292;28;20045;-75
2022/01/23 04:01:50;;;;;;;34.53;16.40;;;;;;;1.71;91.40;97774.91;5052937;28;20056;-75
2022/01/23 04:04:28;;;;;;;36.63;16.77;;;;;;;1.73;91.25;97776.34;5052182;28;20512;-75
2022/01/23 04:06:55;;;;;;;36.47;16.92;;;;;;;1.76;91.01;97775.88;5052932;28;20052;-75
2022/01/23 04:09:21;;;;;;;38.92;16.70;;;;;;;1.75;90.89;97773.41;5052305;28;20099;-75
2022/01/23 04:11:48;;;;;;;38.75;17.00;;;;;;;1.72;90.78;97765.81;5052754;28;20049;-75
2022/01/23 04:14:18;;;;;;;37.67;16.33;;;;;;;1.68;91.00;97765.47;5051222;28;20389;-74
2022/01/23 04:17:11;;;;;;;38.10;16.90;;;;;;;1.69;90.85;97761.72;5052550;28;20052;-75
2022/01/23 04:19:44;;;;;;;27.20;13.00;;;;;;;1.66;90.84;97761.34;5052485;28;20049;-75
2022/01/23 04:33:30;;;;;;;33.92;15.10;;;;;;;1.53;91.62;97762.34;5031932;28;20068;-75
2022/01/23 05:00:47;;;;;;;31.10;14.63;;;;;;;1.61;91.18;97767.38;5031626;28;20420;-75
2022/01/23 05:06:02;;;;;;;32.85;15.38;;;;;;;1.66;91.06;97770.22;5020906;28;20115;-74
2022/01/23 05:08:32;;;;;;;30.98;15.30;;;;;;;1.67;90.86;97765.66;5031364;28;20065;-74
2022/01/23 05:10:59;;;;;;;30.77;15.60;;;;;;;1.69;91.14;97759.03;5031509;28;20056;-75
2022/01/23 05:13:26;;;;;;;32.50;14.93;;;;;;;1.69;91.09;97753.66;5030465;28;20056;-75
2022/01/23 05:15:53;;;;;;;29.27;14.27;;;;;;;1.70;90.83;97743.75;5031584;28;20050;-74
2022/01/23 05:18:21;;;;;;;35.15;15.88;;;;;;;1.65;90.92;97736.34;5031218;28;20045;-74
2022/01/23 05:20:53;;;;;;;30.95;14.73;;;;;;;1.64;91.07;97737.41;5031589;28;20053;-74
2022/01/23 05:23:19;;;;;;;29.73;14.63;;;;;;;1.59;91.00;97737.28;5031141;28;20431;-74
2022/01/23 05:25:46;;;;;;;29.98;14.90;;;;;;;1.58;91.46;97757.13;5031527;28;20704;-74
2022/01/23 05:28:12;;;;;;;31.48;14.98;;;;;;;1.60;91.22;97768.44;5031129;28;20045;-74
2022/01/23 05:30:40;;;;;;;33.17;15.25;;;;;;;1.61;91.18;97772.75;5031477;28;20053;-74
2022/01/23 05:33:06;;;;;;;30.77;14.43;;;;;;;1.62;91.20;97778.94;5031049;28;20125;-74
2022/01/23 05:35:34;;;;;;;30.95;14.70;;;;;;;1.64;91.08;97766.94;5031266;28;20060;-74
2022/01/23 05:38:01;;;;;;;30.83;14.85;;;;;;;1.63;91.02;97777.91;5031167;28;20049;-74
2022/01/23 05:40:29;;;;;;;33.65;16.13;;;;;;;1.68;90.97;97778.88;5030771;28;20056;-75
2022/01/23 05:42:55;;;;;;;31.52;14.82;;;;;;;1.72;90.77;97772.03;5031329;28;20132;-75
2022/01/23 05:45:22;;;;;;;32.63;15.35;;;;;;;1.68;90.52;97770.81;5028855;28;20582;-74
2022/01/23 05:47:48;;;;;;;32.90;15.88;;;;;;;1.65;90.63;97773.94;5030915;28;20107;-74
2022/01/23 05:50:15;;;;;;;31.00;15.98;;;;;;;1.63;90.80;97778.75;5030257;28;20045;-75
2022/01/23 05:52:43;;;;;;;31.95;15.63;;;;;;;1.62;91.01;97777.09;5030952;28;20137;-74
2022/01/23 05:55:09;;;;;;;30.25;14.85;;;;;;;1.62;90.93;97785.16;5030411;28;20042;-74
2022/01/23 05:57:36;;;;;;;36.60;16.88;;;;;;;1.62;91.03;97782.47;5031034;28;20049;-75
2022/01/23 06:00:04;;;;;;;31.63;15.10;;;;;;;1.65;90.91;97784.69;5030326;28;20053;-74
2022/01/23 06:02:30;;;;;;;35.10;15.43;;;;;;;1.68;90.66;97796.88;5030766;28;20050;-74
2022/01/23 06:04:57;;;;;;;29.02;14.90;;;;;;;1.67;90.47;97795.19;5030707;28;20056;-74
2022/01/23 06:07:23;;;;;;;33.90;16.15;;;;;;;1.67;90.83;97793.34;5030169;28;20057;-75
2022/01/23 06:09:51;;;;;;;32.85;14.73;;;;;;;1.68;90.57;97799.53;5030636;28;20080;-75
2022/01/23 06:12:17;;;;;;;33.05;15.68;;;;;;;1.66;90.38;97802.44;5029960;28;20080;-74
2022/01/23 06:14:44;;;;;;;31.35;15.57;;;;;;;1.63;90.48;97789.47;5030029;28;20056;-74
2022/01/23 06:17:10;;;;;;;38.45;16.02;;;;;;;1.64;90.66;97799.16;5030233;28;20069;-74
2022/01/23 06:19:38;;;;;;;32.85;16.08;;;;;;;1.66;90.66;97798.94;5030663;28;20054;-74
2022/01/23 06:22:05;;;;;;;31.73;15.88;;;;;;;1.64;90.55;97796.47;5030094;28;20045;-74
2022/01/23 06:24:32;;;;;;;32.90;15.45;;;;;;;1.62;90.83;97795.91;5030785;28;20465;-74
2022/01/23 06:27:02;;;;;;;32.45;15.25;;;;;;;1.64;90.70;97804.53;5030438;28;20049;-74
2022/01/23 06:29:30;;;;;;;35.75;15.88;;;;;;;1.61;90.68;97804.97;5030386;28;20045;-74
2022/01/23 06:31:58;;;;;;;32.65;15.38;;;;;;;1.58;90.75;97805.44;5030557;28;20050;-74
2022/01/23 06:34:25;;;;;;;36.28;16.05;;;;;;;1.58;91.07;97802.75;5029833;28;20046;-74
2022/01/23 06:36:53;;;;;;;36.38;16.02;;;;;;;1.60;90.98;97810.59;5030760;28;20053;-74
2022/01/23 06:39:21;;;;;;;32.22;15.32;;;;;;;1.60;90.80;97816.75;5030103;28;20124;-75
2022/01/23 06:41:47;;;;;;;30.92;14.43;;;;;;;1.59;90.80;97809.75;5030421;28;20496;-74
2022/01/23 06:44:15;;;;;;;32.42;15.88;;;;;;;1.60;90.93;97810.59;5029602;28;20045;-74
2022/01/23 06:46:42;;;;;;;36.17;15.55;;;;;;;1.61;90.62;97802.28;5030354;28;20053;-74
2022/01/23 06:49:09;;;;;;;32.92;15.32;;;;;;;1.60;90.80;97800.66;5029600;28;20053;-75
2022/01/23 06:51:35;;;;;;;31.95;15.05;;;;;;;1.62;90.58;97801.28;5030409;28;20056;-74
2022/01/23 06:54:02;;;;;;;33.90;15.18;;;;;;;1.64;90.61;97801.84;5029927;28;20499;-75
2022/01/23 06:56:28;;;;;;;35.25;15.93;;;;;;;1.60;90.64;97802.53;5030231;28;20049;-74
2022/01/23 06:58:56;;;;;;;34.60;16.20;;;;;;;1.58;90.55;97800.06;5030266;28;20050;-74
2022/01/23 07:01:23;;;;;;;34.63;16.17;;;;;;;1.56;90.60;97802.16;5031918;28;20045;-74
2022/01/23 07:03:50;;;;;;;35.22;15.98;;;;;;;1.52;90.93;97795.59;5033937;28;20060;-74
2022/01/23 07:06:16;;;;;;;34.67;16.02;;;;;;;1.55;90.93;97805.88;5033317;28;20053;-74
2022/01/23 07:08:43;;;;;;;32.97;16.02;;;;;;;1.59;90.93;97819.69;5034048;28;20045;-74
2022/01/23 07:11:10;;;;;;;31.45;15.55;;;;;;;1.59;90.72;97814.31;5033396;28;20392;-75
2022/01/23 07:13:37;;;;;;;36.03;16.23;;;;;;;1.60;90.83;97830.19;5033289;28;20049;-74
2022/01/23 07:16:06;;;;;;;37.78;16.30;;;;;;;1.61;90.75;97825.63;5033311;28;20061;-74
2022/01/23 07:18:34;;;;;;;33.03;15.10;;;;;;;1.60;90.70;97827.50;5034012;28;20477;-74
2022/01/23 07:21:00;;;;;;;30.38;14.77;;;;;;;1.62;90.84;97833.50;5033609;28;20053;-74
2022/01/23 07:23:26;;;;;;;34.53;15.85;;;;;;;1.66;90.34;97834.66;5073161;28;20059;-74
2022/01/23 07:25:53;;;;;;;32.85;15.57;;;;;;;1.65;90.57;97838.41;5073347;28;20049;-74
2022/01/23 07:28:23;;;;;;;32.42;15.90;;;;;;;1.66;90.24;97845.41;5072971;28;20517;-75
2022/01/23 07:30:51;;;;;;;32.38;16.92;;;;;;;1.68;90.46;97846.00;5073252;28;20491;-74
2022/01/23 07:33:18;;;;;;;35.67;16.98;;;;;;;1.75;90.25;97854.81;5072980;28;20060;-74
2022/01/23 07:35:46;;;;;;;35.38;16.27;;;;;;;1.78;90.39;97869.66;5073142;28;20063;-74
2022/01/23 07:38:16;;;;;;;34.70;16.70;;;;;;;1.79;89.89;97874.81;5072886;28;20052;-74
2022/01/23 07:40:44;;;;;;;32.15;15.80;;;;;;;1.83;89.94;97878.69;5073265;28;20048;-74
2022/01/23 07:43:11;;;;;;;38.45;16.65;;;;;;;1.89;90.07;97876.97;5072255;28;20041;-74
2022/01/23 07:45:37;;;;;;;32.10;17.00;;;;;;;1.93;89.33;97875.47;5073173;28;20067;-75
2022/01/23 07:48:04;;;;;;;36.40;16.58;;;;;;;1.95;89.07;97875.25;5072844;28;20048;-75
2022/01/23 07:50:31;;;;;;;32.42;16.00;;;;;;;1.94;89.12;97889.72;5073179;28;20083;-74
2022/01/23 07:52:59;;;;;;;35.28;16.88;;;;;;;1.97;88.89;97886.56;5073250;28;20048;-74
2022/01/23 07:55:25;;;;;;;32.17;15.55;;;;;;;2.00;89.15;97888.81;5072433;28;20049;-74
2022/01/23 07:57:52;;;;;;;38.25;16.30;;;;;;;2.05;88.70;97887.09;5072901;28;20052;-74
2022/01/23 08:00:19;;;;;;;29.88;15.68;;;;;;;2.10;88.38;97894.47;5072483;28;20048;-74
2022/01/23 08:02:46;;;;;;;35.85;16.80;;;;;;;2.14;88.31;97895.69;5072832;28;20075;-74
2022/01/23 08:05:13;;;;;;;34.28;16.85;;;;;;;2.14;87.89;97900.19;5072280;28;20048;-74
2022/01/23 08:07:39;;;;;;;30.95;16.25;;;;;;;2.14;88.11;97908.25;5073003;28;20056;-76
2022/01/23 08:10:09;;;;;;;33.63;15.77;;;;;;;2.17;87.90;97914.00;5072105;28;20506;-75
2022/01/23 08:12:36;;;;;;;31.48;16.33;;;;;;;2.18;87.75;97912.97;5072632;28;20054;-76
2022/01/23 08:15:05;;;;;;;35.45;15.95;;;;;;;2.17;87.69;97916.72;5071641;28;20044;-76
2022/01/23 08:17:32;;;;;;;31.95;15.90;;;;;;;2.18;87.59;97918.34;5072734;28;20056;-76
2022/01/23 08:20:00;;;;;;;35.03;16.88;;;;;;;2.22;87.74;97916.84;5072745;28;20470;-77
2022/01/23 08:22:29;;;;;;;35.38;16.85;;;;;;;2.23;87.63;97910.41;5072286;28;20106;-77
2022/01/23 08:24:56;;;;;;;32.83;16.63;;;;;;;2.30;87.96;97908.50;5072458;28;20048;-77
2022/01/23 08:27:28;;;;;;;36.15;16.63;;;;;;;2.37;87.75;97904.88;5071929;28;20051;-77
2022/01/23 08:29:54;;;;;;;31.33;15.25;;;;;;;2.38;87.45;97912.72;5072343;28;20513;-76
2022/01/23 08:32:21;;;;;;;28.98;14.68;;;;;;;2.42;87.16;97902.34;5071750;28;20118;-77
2022/01/23 08:34:48;;;;;;;36.42;16.33;;;;;;;2.42;87.05;97907.72;5072228;28;20048;-77
2022/01/23 08:37:16;;;;;;;31.95;16.23;;;;;;;2.50;86.75;97904.69;5071632;28;20051;-77
2022/01/23 08:39:43;;;;;;;35.10;16.35;;;;;;;2.52;86.51;97913.38;5072137;28;20048;-77
2022/01/23 08:42:11;;;;;;;30.10;15.63;;;;;;;2.54;86.03;97909.38;5071842;28;20048;-76
2022/01/23 08:44:40;;;;;;;31.33;15.70;;;;;;;2.57;86.09;97900.06;5071752;28;20044;-76
2022/01/23 08:47:07;;;;;;;29.67;15.15;;;;;;;2.60;86.48;97904.97;5071520;28;20048;-76
2022/01/23 08:49:36;;;;;;;31.17;14.95;;;;;;;2.65;85.64;97904.28;5071164;28;20380;-77
2022/01/23 08:52:04;;;;;;;33.00;16.50;;;;;;;2.68;85.24;97901.97;5071405;28;20044;-78
2022/01/23 08:54:30;;;;;;;30.08;15.32;;;;;;;2.65;85.09;97901.59;5071954;28;20045;-77
2022/01/23 08:56:57;;;;;;;32.67;15.68;;;;;;;2.64;85.46;97906.16;5071758;28;20052;-76
2022/01/23 08:59:24;;;;;;;26.83;14.82;;;;;;;2.64;85.52;97900.78;5071337;28;20056;-77
2022/01/23 09:01:52;;;;;;;30.98;15.05;;;;;;;2.62;85.27;97908.25;5071673;28;20049;-77
2022/01/23 09:04:19;;;;;;;30.75;15.55;;;;;;;2.61;85.31;97906.63;5071128;28;20052;-77
2022/01/23 09:06:47;;;;;;;32.00;16.25;;;;;;;2.58;85.28;97901.69;5071398;28;20071;-77
2022/01/23 09:09:18;;;;;;;36.83;16.42;;;;;;;2.54;85.53;97917.44;5070970;28;20052;-76
2022/01/23 09:11:57;;;;;;;34.00;16.30;;;;;;;2.57;85.79;97905.44;5071294;28;20140;-77
2022/01/23 09:14:24;;;;;;;32.35;16.70;;;;;;;2.59;85.97;97897.94;5070319;28;20071;-77
2022/01/23 09:16:53;;;;;;;30.48;15.52;;;;;;;2.66;85.54;97895.97;5071172;28;20040;-77
2022/01/23 09:19:21;;;;;;;31.73;15.57;;;;;;;2.72;85.51;97896.94;5071024;28;20041;-77
2022/01/23 09:21:49;;;;;;;32.17;16.15;;;;;;;2.72;84.77;97902.31;5071337;28;20407;-77
2022/01/23 09:24:17;;;;;;;30.98;15.02;;;;;;;2.69;85.23;97898.22;5070310;28;20419;-77
2022/01/23 09:26:45;;;;;;;31.75;15.52;;;;;;;2.67;85.09;97900.31;5071086;28;20403;-77
2022/01/23 09:29:16;;;;;;;31.85;15.98;;;;;;;2.62;85.38;97897.50;5070585;28;20499;-76
2022/01/23 09:31:49;;;;;;;28.67;15.25;;;;;;;2.65;85.54;97899.72;5071018;28;20135;-77
2022/01/23 09:34:18;;;;;;;21.52;11.57;;;;;;;2.72;85.67;97908.53;5070855;28;20044;-77
2022/01/23 09:36:45;;;;;;;29.48;15.10;;;;;;;2.73;85.21;97912.84;5071052;28;20385;-77
2022/01/23 09:39:15;;;;;;;30.60;16.08;;;;;;;2.84;85.60;97909.38;5070650;28;20068;-77
2022/01/23 09:41:46;;;;;;;30.88;15.63;;;;;;;2.93;84.87;97917.13;5070909;28;20464;-77
2022/01/23 09:44:15;;;;;;;33.25;15.85;;;;;;;2.93;84.21;97919.81;5070058;28;20106;-77
2022/01/23 09:46:43;;;;;;;33.22;16.30;;;;;;;2.92;84.28;97916.28;5070904;28;20049;-76
2022/01/23 09:49:11;;;;;;;30.58;15.77;;;;;;;2.91;84.02;97913.81;5070048;28;20056;-77
2022/01/23 09:51:42;;;;;;;31.73;15.75;;;;;;;2.93;84.15;97919.81;5071075;28;20044;-76
2022/01/23 09:54:11;;;;;;;31.38;16.40;;;;;;;3.00;84.40;97917.81;5070468;28;20051;-77
2022/01/23 09:56:37;;;;;;;31.25;16.20;;;;;;;3.11;84.34;97912.47;5070863;28;20051;-78
2022/01/23 09:59:04;;;;;;;28.05;15.27;;;;;;;3.17;83.28;97915.28;5070426;28;20051;-77
2022/01/23 10:01:31;;;;;;;31.98;16.00;;;;;;;3.20;83.27;97910.25;5070884;28;20052;-77
2022/01/23 10:03:57;;;;;;;27.45;14.25;;;;;;;3.27;82.85;97910.94;5070575;28;20411;-77
2022/01/23 10:06:24;;;;;;;29.13;14.80;;;;;;;3.32;82.57;97912.94;5070266;28;20051;-77
2022/01/23 10:08:53;;;;;;;28.10;14.80;;;;;;;3.32;82.22;97908.38;5068888;28;20056;-77
2022/01/23 10:11:20;;;;;;;28.38;14.80;;;;;;;3.32;82.36;97912.94;5066748;28;20060;-75
2022/01/23 10:13:48;;;;;;;32.17;15.20;;;;;;;3.31;82.23;97909.44;5066663;28;20055;-76
2022/01/23 10:16:15;;;;;;;29.02;14.57;;;;;;;3.34;82.62;97911.69;5066684;28;20055;-75
2022/01/23 10:18:41;;;;;;;30.85;15.07;;;;;;;3.40;82.56;97907.22;5067284;28;20051;-75
2022/01/23 10:21:08;;;;;;;26.95;14.43;;;;;;;3.42;82.01;97912.38;5067046;28;20048;-75
2022/01/23 10:23:35;;;;;;;25.13;13.93;;;;;;;3.43;81.75;97909.44;5067173;28;20439;-75
2022/01/23 10:26:04;;;;;;;27.00;13.82;;;;;;;3.38;81.87;97902.06;5067152;28;20095;-75
2022/01/23 10:28:34;;;;;;;25.85;13.25;;;;;;;3.39;81.89;97906.41;5067355;28;20105;-75
2022/01/23 10:31:03;;;;;;;28.13;13.75;;;;;;;3.32;81.75;97907.56;5067409;28;20058;-76
2022/01/23 10:33:32;;;;;;;25.25;13.85;;;;;;;3.29;82.05;97898.09;5066970;28;20441;-75
2022/01/23 10:36:01;;;;;;;26.38;13.13;;;;;;;3.29;82.13;97900.78;5068361;28;20053;-75
2022/01/23 10:38:30;;;;;;;25.23;12.68;;;;;;;3.32;81.83;97908.38;5071218;28;20399;-73
2022/01/23 10:41:07;;;;;;;26.83;13.10;;;;;;;3.40;81.81;97905.34;5071231;28;20048;-74
2022/01/23 10:49:15;;;;;;;24.05;12.35;;;;;;;3.43;80.92;97908.63;4988684;28;20089;-77
2022/01/23 10:51:41;;;;;;;24.83;12.35;;;;;;;3.46;81.38;97902.78;5050736;28;20063;-77
2022/01/23 10:54:15;;;;;;;24.60;13.32;;;;;;;3.55;81.66;97901.34;5070093;28;20048;-75
2022/01/23 10:56:59;;;;;;;;;;;;;;;3.59;81.32;97907.91;5071409;28;20108;-76
2022/01/23 10:59:27;;;;;;;;;;;;;;;3.62;80.91;97907.44;5070150;28;20371;-76
2022/01/23 11:02:03;;;;;;;25.58;13.05;;;;;;;3.61;80.54;97903.13;5071057;28;19924;-77
2022/01/23 11:04:30;;;;;;;28.25;13.18;;;;;;;3.61;80.64;97911.22;5070124;28;20726;-78
2022/01/23 11:07:00;;;;;;;25.25;12.93;;;;;;;3.59;80.65;97907.91;5069872;28;20131;-80
2022/01/23 11:09:28;;;;;;;22.58;12.18;;;;;;;3.59;81.15;97891.75;5070634;28;20049;-79
2022/01/23 11:12:03;;;;;;;27.58;13.30;;;;;;;3.61;80.83;97893.16;5070621;28;20423;-80
2022/01/23 11:17:22;;;;;;;27.67;13.95;;;;;;;3.74;80.30;97889.38;5069972;28;20600;-81
2022/01/23 11:19:50;;;;;;;25.63;13.45;;;;;;;3.83;79.82;97890.66;5070698;28;20094;-78
2022/01/23 11:22:18;;;;;;;24.05;12.55;;;;;;;3.87;80.03;97897.22;5071640;28;20059;-79
2022/01/23 11:24:47;;;;;;;26.42;13.80;;;;;;;3.95;80.09;97889.81;5081446;28;20055;-80
2022/01/23 11:27:18;;;;;;;25.02;13.40;;;;;;;3.99;78.54;97893.69;5071503;28;20056;-80
2022/01/23 11:29:58;;;;;;;28.73;14.00;;;;;;;4.01;78.91;97889.69;5073333;28;20060;-79
2022/01/23 11:32:29;;;;;;;26.15;13.50;;;;;;;4.06;79.35;97886.28;5071096;28;20423;-78
2022/01/23 11:35:05;;;;;;;24.35;13.35;;;;;;;4.11;79.18;97889.91;5072432;28;20048;-78
2022/01/23 11:37:32;;;;;;;24.27;12.70;;;;;;;4.20;78.00;97890.34;5072348;28;20502;-80
2022/01/23 11:40:05;;;;;;;25.52;13.65;;;;;;;4.29;77.65;97899.69;5070950;28;20052;-79
2022/01/23 11:51:08;;;;;;;30.98;15.25;;;;;;;4.21;77.34;97870.41;5070872;28;20056;-79
2022/01/23 11:53:52;;;;;;;29.80;13.98;;;;;;;4.11;77.87;97873.72;5070387;28;20141;-78
2022/01/23 11:56:46;;;;;;;26.73;12.50;;;;;;;4.03;78.32;97870.59;5069523;28;20052;-81
2022/01/23 11:59:18;;;;;;;26.65;14.65;;;;;;;4.00;78.53;97877.28;5069722;28;20060;-79
2022/01/23 12:01:49;;;;;;;25.52;13.18;;;;;;;4.00;78.42;97871.06;5070958;28;20071;-80
2022/01/23 12:04:19;;;;;;;25.60;13.75;;;;;;;4.01;78.76;97870.00;5070172;28;20072;-81
2022/01/23 12:07:20;;;;;;;26.83;13.48;;;;;;;4.02;78.82;97874.31;5070646;28;20562;-82
2022/01/23 12:10:14;;;;;;;24.80;13.65;;;;;;;4.08;78.85;97868.81;5069914;28;20049;-81
2022/01/23 12:12:44;;;;;;;28.33;14.68;;;;;;;4.16;77.75;97875.69;5069876;28;20084;-81
2022/01/23 12:18:20;;;;;;;27.52;13.85;;;;;;;4.08;77.85;97868.81;5069284;28;20118;-81
2022/01/23 12:20:48;;;;;;;25.13;13.70;;;;;;;4.15;78.66;97863.28;5007689;28;20534;-79
2022/01/23 12:23:16;;;;;;;25.15;14.02;;;;;;;4.22;78.20;97869.34;5063874;28;20040;-79
2022/01/23 12:25:44;;;;;;;26.10;13.25;;;;;;;4.29;78.41;97859.25;5069184;28;20045;-79
2022/01/23 12:28:17;;;;;;;23.80;12.88;;;;;;;4.37;77.97;97871.53;5068855;28;20058;-79
2022/01/23 12:30:46;;;;;;;23.88;12.18;;;;;;;4.48;76.69;97875.22;5069308;28;20040;-79
2022/01/23 12:33:21;;;;;;;23.58;12.45;;;;;;;4.52;76.78;97879.09;5070697;28;20055;-80
2022/01/23 12:35:50;;;;;;;26.27;13.32;;;;;;;4.59;76.61;97877.84;5070059;28;20059;-80
2022/01/23 12:38:17;;;;;;;25.65;12.80;;;;;;;4.62;75.34;97868.47;5071235;28;20051;-80
2022/01/23 12:40:47;;;;;;;26.33;13.73;;;;;;;4.59;75.84;97877.84;5060606;28;20142;-79
2022/01/23 12:43:18;;;;;;;25.52;13.70;;;;;;;4.58;75.71;97880.81;5079201;28;20059;-82
2022/01/23 12:51:35;;;;;;;26.55;13.23;;;;;;;4.53;76.12;97869.94;5108489;22;20106;-85
2022/01/23 12:54:12;;;;;;;26.55;13.43;;;;;;;4.55;75.73;97863.25;5033246;28;20036;-77
2022/01/23 12:59:53;;;;;;;26.60;13.30;;;;;;;4.54;76.07;97860.75;5341587;23;20047;-80
2022/01/23 13:02:22;;;;;;;25.25;13.50;;;;;;;4.58;75.76;97864.63;4974843;28;20058;-81
2022/01/23 13:04:51;;;;;;;25.23;13.65;;;;;;;4.63;76.19;97865.53;4971835;28;20506;-80
2022/01/23 13:07:41;;;;;;;22.60;12.70;;;;;;;4.67;76.04;97857.78;4978108;28;20061;-80
2022/01/23 13:10:23;;;;;;;22.60;12.38;;;;;;;4.67;75.51;97860.47;4992892;28;20508;-82
2022/01/23 13:13:05;;;;;;;23.33;12.20;;;;;;;4.62;75.13;97855.81;4992549;28;20105;-81
2022/01/23 13:15:55;;;;;;;24.25;12.98;;;;;;;4.53;75.62;97856.44;5005085;28;20085;-80
2022/01/23 13:18:45;;;;;;;22.65;12.70;;;;;;;4.44;75.87;97859.53;4990942;28;20440;-79
2022/01/23 13:32:27;;;;;;;25.48;12.50;;;;;;;4.16;77.09;97838.78;4991010;28;20058;-79
2022/01/23 13:34:57;;;;;;;25.08;13.38;;;;;;;4.14;77.33;97837.38;4990614;28;20685;-78
2022/01/23 13:37:26;;;;;;;25.58;13.65;;;;;;;4.16;77.16;97837.97;4990347;28;20061;-80
2022/01/23 13:39:59;;;;;;;27.17;13.00;;;;;;;3.99;77.65;97826.31;4991079;28;20062;-80
2022/01/23 13:42:43;;;;;;;28.23;13.17;;;;;;;4.00;77.78;97823.38;4990171;28;20046;-80
2022/01/23 13:48:38;;;;;;;23.80;12.93;;;;;;;3.91;78.35;97831.03;4990769;28;20052;-79
2022/01/23 13:51:30;;;;;;;28.00;13.60;;;;;;;4.00;78.78;97822.56;4989185;28;20054;-80
2022/01/23 13:59:43;;;;;;;23.73;12.90;;;;;;;4.14;78.01;97829.31;4991429;28;20065;-81
2022/01/23 14:02:17;;;;;;;25.67;13.05;;;;;;;4.19;77.66;97826.69;5095919;23;20070;-81
2022/01/23 14:04:47;;;;;;;25.25;13.13;;;;;;;4.19;77.03;97832.09;4990258;28;20078;-81
2022/01/23 14:07:18;;;;;;;25.25;13.55;;;;;;;4.20;77.69;97831.03;4989561;28;21451;-82
2022/01/23 14:09:46;;;;;;;28.20;13.18;;;;;;;4.23;78.08;97835.09;5006852;28;20081;-82
2022/01/23 14:12:18;;;;;;;25.80;13.70;;;;;;;4.23;77.07;97835.09;5134397;23;20066;-82
2022/01/23 14:14:54;;;;;;;28.73;12.27;;;;;;;4.26;77.19;97838.16;4997328;28;20042;-82
2022/01/23 14:17:23;;;;;;;26.73;13.05;;;;;;;4.21;77.30;97846.16;5005670;28;20548;-84
2022/01/23 14:19:58;;;;;;;25.10;12.55;;;;;;;4.26;76.84;97859.72;5009562;28;20054;-82
2022/01/23 14:22:30;;;;;;;23.63;12.10;;;;;;;4.23;76.66;97862.91;5006299;28;20060;-82
2022/01/23 14:28:05;;;;;;;26.27;13.55;;;;;;;4.09;76.94;97859.69;4944773;29;20050;-82
2022/01/23 14:30:34;;;;;;;27.48;13.88;;;;;;;4.04;77.31;97853.38;4942259;29;20051;-83
2022/01/23 14:33:22;;;;;;;26.48;13.73;;;;;;;4.02;77.66;97850.06;4950438;29;20051;-83
2022/01/23 14:35:49;;;;;;;25.75;13.73;;;;;;;4.02;78.02;97852.75;4945120;29;20047;-83